createdAt,value
2023-03-08T00:01:33.890Z,99787.73
2023-03-08T00:04:02.720Z,99792.47
2023-03-08T00:06:30.939Z,99792.06
2023-03-08T00:09:00.123Z,99790.55
2023-03-08T00:11:29.300Z,99785.37
2023-03-08T00:13:58.777Z,99786.42
2023-03-08T00:16:26.889Z,99786.95
2023-03-08T00:18:56.284Z,99788.40
2023-03-08T00:21:24.467Z,99787.86
2023-03-08T00:23:54.375Z,99789.05
2023-03-08T00:26:22.753Z,99791.34
2023-03-08T00:28:51.337Z,99787.15
2023-03-08T00:31:22.435Z,99781.02
2023-03-08T00:33:55.285Z,99783.11
2023-03-08T00:36:25.810Z,99782.13
2023-03-08T00:38:53.770Z,99781.34
2023-03-08T00:41:22.154Z,99780.71
2023-03-08T00:43:51.004Z,99782.03
2023-03-08T00:46:19.885Z,99779.81
2023-03-08T00:48:49.429Z,99780.70
2023-03-08T00:51:18.679Z,99775.39
2023-03-08T00:53:47.885Z,99773.60
2023-03-08T00:56:16.113Z,99776.34
2023-03-08T01:06:22.410Z,99765.52
2023-03-08T01:08:51.648Z,99764.92
2023-03-08T01:11:21.746Z,99758.55
2023-03-08T01:13:49.947Z,99759.43
2023-03-08T01:16:26.249Z,99759.13
2023-03-08T01:18:55.307Z,99762.98
2023-03-08T01:21:23.976Z,99760.63
2023-03-08T01:23:52.374Z,99758.59
2023-03-08T01:26:23.853Z,99759.95
2023-03-08T01:28:52.021Z,99761.27
2023-03-08T01:31:21.896Z,99763.29
2023-03-08T01:33:51.184Z,99763.15
2023-03-08T01:36:21.199Z,99762.10
2023-03-08T01:38:51.959Z,99766.18
2023-03-08T01:41:22.059Z,99767.13
2023-03-08T01:43:51.650Z,99767.44
2023-03-08T01:46:32.578Z,99765.02
2023-03-08T01:49:16.229Z,99763.63
2023-03-08T01:52:09.022Z,99770.16
2023-03-08T01:55:02.906Z,99775.64
2023-03-08T01:57:33.770Z,99773.80
2023-03-08T02:00:16.158Z,99763.92
2023-03-08T02:02:51.392Z,99756.65
2023-03-08T02:05:19.891Z,99755.02
2023-03-08T02:07:49.689Z,99751.66
2023-03-08T02:10:19.354Z,99754.14
2023-03-08T02:12:49.835Z,99759.34
2023-03-08T02:15:19.124Z,99761.79
2023-03-08T02:17:50.513Z,99768.49
2023-03-08T02:20:23.103Z,99765.77
2023-03-08T02:22:53.439Z,99767.29
2023-03-08T02:25:23.885Z,99764.69
2023-03-08T02:27:53.324Z,99764.76
2023-03-08T02:30:25.993Z,99761.61
2023-03-08T02:32:58.880Z,99763.53
2023-03-08T02:35:30.585Z,99762.02
2023-03-08T02:37:58.727Z,99764.33
2023-03-08T02:40:26.994Z,99762.77
2023-03-08T02:42:56.614Z,99759.52
2023-03-08T02:45:25.784Z,99759.44
2023-03-08T02:47:54.684Z,99766.02
2023-03-08T02:50:22.865Z,99766.45
2023-03-08T02:52:50.932Z,99769.27
2023-03-08T02:55:19.002Z,99773.45
2023-03-08T02:57:47.349Z,99773.05
2023-03-08T03:00:17.318Z,99775.55
2023-03-08T03:02:45.676Z,99773.27
2023-03-08T03:05:14.401Z,99767.80
2023-03-08T03:07:43.765Z,99774.14
2023-03-08T03:10:17.063Z,99773.37
2023-03-08T03:12:45.642Z,99778.98
2023-03-08T03:15:17.513Z,99780.24
2023-03-08T03:17:48.037Z,99785.74
2023-03-08T03:20:16.747Z,99782.20
2023-03-08T03:22:47.352Z,99780.24
2023-03-08T03:25:17.056Z,99781.20
2023-03-08T03:27:46.378Z,99781.61
2023-03-08T03:30:14.948Z,99782.04
2023-03-08T03:32:43.758Z,99786.12
2023-03-08T03:35:16.747Z,99780.56
2023-03-08T03:37:45.304Z,99777.87
2023-03-08T03:40:14.363Z,99780.73
2023-03-08T03:42:43.795Z,99780.33
2023-03-08T03:45:14.643Z,99778.79
2023-03-08T03:47:44.079Z,99768.89
2023-03-08T03:50:12.646Z,99768.40
2023-03-08T03:52:52.586Z,99766.92
2023-03-08T03:55:21.343Z,99761.88
2023-03-08T03:57:52.832Z,99760.52
2023-03-08T04:00:38.185Z,99764.44
2023-03-08T04:03:14.509Z,99766.38
2023-03-08T04:05:43.769Z,99763.73
2023-03-08T04:08:17.988Z,99767.81
2023-03-08T04:10:48.350Z,99770.25
2023-03-08T04:13:16.486Z,99763.02
2023-03-08T04:15:45.907Z,99758.84
2023-03-08T04:18:15.553Z,99753.73
2023-03-08T04:20:45.953Z,99747.52
2023-03-08T04:23:14.277Z,99756.05
2023-03-08T04:25:47.498Z,99749.88
2023-03-08T04:28:16.606Z,99745.59
2023-03-08T04:30:46.470Z,99748.55
2023-03-08T04:33:16.843Z,99750.34
2023-03-08T04:35:49.793Z,99751.23
2023-03-08T04:38:19.695Z,99751.88
2023-03-08T04:41:05.505Z,99755.41
2023-03-08T04:43:56.324Z,99772.96
2023-03-08T04:46:31.718Z,99780.34
2023-03-08T04:49:00.773Z,99772.91
2023-03-08T04:51:32.121Z,99770.74
2023-03-08T04:54:04.952Z,99764.39
2023-03-08T04:56:37.145Z,99770.88
2023-03-08T04:59:10.415Z,99774.63
2023-03-08T05:01:40.154Z,99778.37
2023-03-08T05:04:13.689Z,99780.05
2023-03-08T05:06:46.167Z,99779.70
2023-03-08T05:09:16.991Z,99773.80
2023-03-08T05:11:46.172Z,99768.58
2023-03-08T05:14:18.157Z,99769.45
2023-03-08T05:16:46.680Z,99765.83
2023-03-08T05:19:14.924Z,99756.95
2023-03-08T05:21:48.923Z,99746.00
2023-03-08T05:24:17.099Z,99746.34
2023-03-08T05:26:45.707Z,99747.00
2023-03-08T05:29:18.353Z,99750.45
2023-03-08T05:31:46.990Z,99751.20
2023-03-08T05:34:15.847Z,99759.64
2023-03-08T05:36:46.989Z,99762.13
2023-03-08T05:39:15.145Z,99768.10
2023-03-08T05:41:55.551Z,99767.03
2023-03-08T05:44:28.407Z,99760.52
2023-03-08T05:46:57.078Z,99752.54
2023-03-08T05:49:26.593Z,99745.20
2023-03-08T05:51:55.287Z,99744.41
2023-03-08T05:54:24.262Z,99738.52
2023-03-08T05:56:54.215Z,99736.48
2023-03-08T05:59:27.020Z,99732.39
2023-03-08T06:01:59.561Z,99728.42
2023-03-08T06:04:46.728Z,99732.79
2023-03-08T06:07:15.642Z,99727.35
2023-03-08T06:09:47.741Z,99731.14
2023-03-08T06:12:20.663Z,99724.35
2023-03-08T06:14:53.140Z,99720.77
2023-03-08T06:17:27.498Z,99717.80
2023-03-08T06:19:58.728Z,99716.46
2023-03-08T06:22:26.914Z,99718.37
2023-03-08T06:24:56.256Z,99717.08
2023-03-08T06:27:30.020Z,99718.06
2023-03-08T06:30:00.761Z,99714.86
2023-03-08T06:32:31.545Z,99710.15
2023-03-08T06:35:01.076Z,99706.66
2023-03-08T06:37:34.504Z,99711.80
2023-03-08T06:40:05.552Z,99710.41
2023-03-08T06:42:41.263Z,99705.63
2023-03-08T06:45:12.586Z,99705.75
2023-03-08T06:47:40.658Z,99705.70
2023-03-08T06:50:10.269Z,99711.49
2023-03-08T06:52:39.741Z,99712.10
2023-03-08T06:55:10.467Z,99711.00
2023-03-08T06:57:38.539Z,99702.44
2023-03-08T07:00:09.738Z,99703.74
2023-03-08T07:02:37.859Z,99703.21
2023-03-08T07:05:06.240Z,99697.42
2023-03-08T07:07:35.791Z,99693.44
2023-03-08T07:10:04.733Z,99699.28
2023-03-08T07:12:32.973Z,99701.81
2023-03-08T07:15:01.087Z,99700.48
2023-03-08T07:17:30.058Z,99691.36
2023-03-08T07:19:58.365Z,99688.45
2023-03-08T07:22:26.483Z,99687.46
2023-03-08T07:24:54.921Z,99686.08
2023-03-08T07:27:24.004Z,99684.11
2023-03-08T07:29:52.314Z,99687.45
2023-03-08T07:32:20.939Z,99688.50
2023-03-08T07:34:49.445Z,99691.16
2023-03-08T07:37:17.872Z,99683.83
2023-03-08T07:39:46.206Z,99678.36
2023-03-08T07:42:14.414Z,99675.73
2023-03-08T07:44:45.654Z,99667.27
2023-03-08T07:47:14.117Z,99663.88
2023-03-08T07:49:42.306Z,99662.84
2023-03-08T07:52:16.918Z,99661.67
2023-03-08T07:54:45.708Z,99658.31
2023-03-08T07:57:14.382Z,99651.14
2023-03-08T07:59:43.658Z,99646.48
2023-03-08T08:02:14.025Z,99637.59
2023-03-08T08:04:42.652Z,99628.86
2023-03-08T08:07:12.525Z,99628.34
2023-03-08T08:09:40.522Z,99625.21
2023-03-08T08:12:09.223Z,99625.05
2023-03-08T08:14:38.267Z,99622.73
2023-03-08T08:17:06.438Z,99616.23
2023-03-08T08:19:34.834Z,99608.54
2023-03-08T08:22:03.408Z,99602.81
2023-03-08T08:24:33.010Z,99601.47
2023-03-08T08:27:26.213Z,99596.31
2023-03-08T08:29:54.180Z,99594.00
2023-03-08T08:32:22.138Z,99587.76
2023-03-08T08:34:50.293Z,99584.04
2023-03-08T08:37:23.101Z,99582.36
2023-03-08T08:39:51.138Z,99579.98
2023-03-08T08:42:19.102Z,99574.29
2023-03-08T08:44:47.198Z,99573.38
2023-03-08T08:47:15.646Z,99573.83
2023-03-08T08:49:44.667Z,99572.02
2023-03-08T08:52:13.032Z,99563.52
2023-03-08T08:54:42.024Z,99557.50
2023-03-08T08:57:10.340Z,99551.29
2023-03-08T08:59:38.694Z,99543.52
2023-03-08T09:02:06.890Z,99542.69
2023-03-08T09:04:35.150Z,99547.48
2023-03-08T09:07:03.618Z,99543.57
2023-03-08T09:09:32.304Z,99547.94
2023-03-08T09:12:07.645Z,99542.87
2023-03-08T09:14:37.049Z,99547.96
2023-03-08T09:17:06.174Z,99550.42
2023-03-08T09:19:36.603Z,99559.14
2023-03-08T09:22:04.810Z,99560.48
2023-03-08T09:24:33.954Z,99566.36
2023-03-08T09:27:01.881Z,99575.86
2023-03-08T09:29:30.069Z,99579.00
2023-03-08T09:32:04.921Z,99584.10
2023-03-08T09:34:39.553Z,99588.23
2023-03-08T09:37:08.501Z,99582.45
2023-03-08T09:39:41.241Z,99576.05
2023-03-08T09:42:25.230Z,99570.19
2023-03-08T09:45:08.163Z,99569.87
2023-03-08T09:47:39.692Z,99564.35
2023-03-08T09:50:32.962Z,99557.33
2023-03-08T09:53:39.325Z,99553.84
2023-03-08T09:56:16.378Z,99543.80
2023-03-08T09:58:50.934Z,99535.09
2023-03-08T10:01:32.580Z,99524.92
2023-03-08T10:04:12.873Z,99520.39
2023-03-08T10:06:46.374Z,99518.89
2023-03-08T10:09:22.605Z,99517.58
2023-03-08T10:12:02.544Z,99507.82
2023-03-08T10:14:35.960Z,99506.23
2023-03-08T10:17:10.566Z,99502.09
2023-03-08T10:19:42.292Z,99496.90
2023-03-08T10:22:16.959Z,99493.46
2023-03-08T10:25:17.803Z,99493.35
2023-03-08T10:27:53.207Z,99485.48
2023-03-08T10:30:32.399Z,99484.06
2023-03-08T10:33:01.469Z,99481.79
2023-03-08T10:35:32.002Z,99474.82
2023-03-08T10:38:00.919Z,99482.55
2023-03-08T10:40:29.391Z,99487.08
2023-03-08T10:43:04.227Z,99485.63
2023-03-08T10:45:34.822Z,99484.52
2023-03-08T10:48:04.878Z,99477.89
2023-03-08T10:50:36.722Z,99480.55
2023-03-08T10:53:16.767Z,99484.27
2023-03-08T10:55:49.361Z,99487.73
2023-03-08T10:58:27.662Z,99483.14
2023-03-08T11:00:56.662Z,99480.90
2023-03-08T11:03:25.647Z,99478.94
2023-03-08T11:06:00.565Z,99476.17
2023-03-08T11:08:33.625Z,99472.28
2023-03-08T11:11:02.381Z,99464.67
2023-03-08T11:13:32.961Z,99461.81
2023-03-08T11:16:17.099Z,99453.27
2023-03-08T11:18:51.568Z,99455.13
2023-03-08T11:21:22.367Z,99454.94
2023-03-08T11:24:06.777Z,99452.55
2023-03-08T11:26:38.332Z,99455.23
2023-03-08T11:29:26.006Z,99454.20
2023-03-08T11:32:06.382Z,99452.79
2023-03-08T11:35:04.741Z,99445.60
2023-03-08T11:37:51.553Z,99449.47
2023-03-08T11:40:22.490Z,99437.26
2023-03-08T11:42:53.904Z,99434.20
2023-03-08T11:45:32.748Z,99432.61
2023-03-08T11:48:23.290Z,99431.48
2023-03-08T11:51:11.163Z,99431.73
2023-03-08T11:53:54.885Z,99431.91
2023-03-08T11:56:35.996Z,99432.35
2023-03-08T11:59:11.221Z,99433.27
2023-03-08T12:01:46.300Z,99436.40
2023-03-08T12:04:19.649Z,99433.30
2023-03-08T12:06:48.321Z,99434.22
2023-03-08T12:09:16.720Z,99430.89
2023-03-08T12:11:46.738Z,99426.95
2023-03-08T12:14:28.856Z,99426.58
2023-03-08T12:17:05.806Z,99427.14
2023-03-08T12:19:44.011Z,99428.20
2023-03-08T12:22:24.135Z,99429.45
2023-03-08T12:25:33.337Z,99432.54
2023-03-08T12:28:05.531Z,99424.27
2023-03-08T12:31:02.212Z,99427.92
2023-03-08T12:33:32.979Z,99424.33
2023-03-08T12:36:04.869Z,99419.98
2023-03-08T12:38:37.543Z,99417.85
2023-03-08T12:41:29.280Z,99415.42
2023-03-08T12:44:01.135Z,99415.25
2023-03-08T12:47:02.190Z,99415.55
2023-03-08T12:49:34.560Z,99419.52
2023-03-08T12:52:23.897Z,99426.98
2023-03-08T12:55:00.819Z,99424.95
2023-03-08T12:57:55.410Z,99419.48
2023-03-08T13:00:44.577Z,99425.80
2023-03-08T13:03:19.303Z,99423.27
2023-03-08T13:05:50.458Z,99423.83
2023-03-08T13:08:34.592Z,99423.00
2023-03-08T13:11:11.910Z,99428.57
2023-03-08T13:13:50.900Z,99433.89
2023-03-08T13:16:26.366Z,99433.09
2023-03-08T13:19:07.064Z,99424.71
2023-03-08T13:21:41.521Z,99421.70
2023-03-08T13:24:49.032Z,99413.66
2023-03-08T13:27:23.343Z,99411.13
2023-03-08T13:29:52.330Z,99407.25
2023-03-08T13:32:23.663Z,99404.61
2023-03-08T13:35:02.258Z,99400.98
2023-03-08T13:37:36.783Z,99399.08
2023-03-08T13:40:14.889Z,99400.95
2023-03-08T13:42:53.689Z,99397.17
2023-03-08T13:45:22.077Z,99400.54
2023-03-08T13:47:50.071Z,99395.38
2023-03-08T13:50:26.287Z,99396.67
2023-03-08T13:52:54.826Z,99393.30
2023-03-08T13:55:32.951Z,99392.89
2023-03-08T13:58:01.686Z,99392.20
2023-03-08T14:00:34.428Z,99397.09
2023-03-08T14:03:06.595Z,99395.91
2023-03-08T14:05:41.198Z,99394.14
2023-03-08T14:08:19.794Z,99395.58
2023-03-08T14:10:51.156Z,99390.39
2023-03-08T14:13:30.193Z,99387.19
2023-03-08T14:16:04.413Z,99385.16
2023-03-08T14:18:39.388Z,99383.90
2023-03-08T14:21:16.531Z,99381.35
2023-03-08T14:23:56.244Z,99379.16
2023-03-08T14:26:31.761Z,99376.58
2023-03-08T14:29:19.636Z,99375.20
2023-03-08T14:31:59.962Z,99377.20
2023-03-08T14:35:04.017Z,99368.02
2023-03-08T14:37:32.373Z,99364.68
2023-03-08T14:40:23.442Z,99359.48
2023-03-08T14:42:54.523Z,99357.02
2023-03-08T14:45:40.247Z,99356.27
2023-03-08T14:48:41.087Z,99352.11
2023-03-08T14:51:17.464Z,99354.46
2023-03-08T14:53:57.201Z,99355.61
2023-03-08T14:56:26.084Z,99357.55
2023-03-08T14:58:54.631Z,99355.52
2023-03-08T15:01:32.480Z,99357.73
2023-03-08T15:04:01.472Z,99360.91
2023-03-08T15:06:31.931Z,99360.05
2023-03-08T15:09:01.284Z,99358.59
2023-03-08T15:11:31.810Z,99359.06
2023-03-08T15:13:59.923Z,99357.59
2023-03-08T15:16:30.903Z,99354.78
2023-03-08T15:18:59.066Z,99351.12
2023-03-08T15:21:28.181Z,99351.00
2023-03-08T15:23:57.351Z,99349.88
2023-03-08T15:26:27.087Z,99351.39
2023-03-08T15:28:57.327Z,99350.77
2023-03-08T15:31:27.329Z,99351.80
2023-03-08T15:33:55.473Z,99352.88
2023-03-08T15:36:25.227Z,99356.09
2023-03-08T15:38:53.513Z,99355.96
2023-03-08T15:41:22.411Z,99357.65
2023-03-08T15:43:51.504Z,99355.78
2023-03-08T15:46:22.051Z,99352.38
2023-03-08T15:48:51.446Z,99352.27
2023-03-08T15:51:20.850Z,99350.23
2023-03-08T15:53:49.331Z,99351.78
2023-03-08T15:56:17.592Z,99352.74
2023-03-08T15:58:46.827Z,99353.84
2023-03-08T16:01:15.195Z,99349.60
2023-03-08T16:03:43.746Z,99352.55
2023-03-08T16:06:15.065Z,99351.07
2023-03-08T16:08:43.899Z,99347.17
2023-03-08T16:11:16.676Z,99348.91
2023-03-08T16:13:48.632Z,99351.98
2023-03-08T16:16:16.688Z,99355.22
2023-03-08T16:18:48.960Z,99355.48
2023-03-08T16:21:17.281Z,99359.46
2023-03-08T16:23:45.534Z,99359.63
2023-03-08T16:26:17.193Z,99362.48
2023-03-08T16:28:46.648Z,99368.73
2023-03-08T16:31:15.334Z,99369.37
2023-03-08T16:33:43.838Z,99376.21
2023-03-08T16:36:12.466Z,99382.86
2023-03-08T16:38:44.017Z,99384.30
2023-03-08T16:41:13.983Z,99383.14
2023-03-08T16:43:48.802Z,99386.50
2023-03-08T16:46:22.621Z,99385.61
2023-03-08T16:48:54.215Z,99390.08
2023-03-08T16:51:24.646Z,99389.75
2023-03-08T16:53:53.231Z,99387.29
2023-03-08T16:56:26.776Z,99386.73
2023-03-08T16:58:57.055Z,99387.33
2023-03-08T17:01:25.396Z,99389.59
2023-03-08T17:03:53.732Z,99394.61
2023-03-08T17:06:23.733Z,99399.10
2023-03-08T17:08:52.811Z,99398.19
2023-03-08T17:11:29.492Z,99403.02
2023-03-08T17:14:00.227Z,99399.48
2023-03-08T17:16:35.768Z,99398.19
2023-03-08T17:19:06.461Z,99395.25
2023-03-08T17:21:38.631Z,99387.51
2023-03-08T17:24:12.801Z,99384.61
2023-03-08T17:26:43.520Z,99383.51
2023-03-08T17:29:11.659Z,99379.34
2023-03-08T17:31:42.515Z,99382.88
2023-03-08T17:34:11.143Z,99378.45
2023-03-08T17:36:40.743Z,99381.76
2023-03-08T17:39:09.157Z,99383.49
2023-03-08T17:41:38.824Z,99382.65
2023-03-08T17:44:07.002Z,99385.86
2023-03-08T17:46:35.429Z,99383.39
2023-03-08T17:49:04.170Z,99381.77
2023-03-08T17:51:32.636Z,99383.52
2023-03-08T17:54:01.413Z,99380.96
2023-03-08T17:56:31.179Z,99378.33
2023-03-08T17:59:03.615Z,99377.48
2023-03-08T18:01:32.071Z,99386.54
2023-03-08T18:04:00.607Z,99387.37
2023-03-08T18:06:35.523Z,99385.72
2023-03-08T18:09:09.685Z,99385.56
2023-03-08T18:11:38.064Z,99387.61
2023-03-08T18:14:07.192Z,99392.05
2023-03-08T18:16:35.208Z,99393.88
2023-03-08T18:19:05.061Z,99397.70
2023-03-08T18:21:34.481Z,99394.61
2023-03-08T18:24:03.122Z,99396.37
2023-03-08T18:26:31.541Z,99392.52
2023-03-08T18:29:00.651Z,99391.80
2023-03-08T18:31:31.138Z,99387.74
2023-03-08T18:33:59.345Z,99391.56
2023-03-08T18:36:28.075Z,99392.54
2023-03-08T18:38:56.217Z,99398.64
2023-03-08T18:41:27.365Z,99399.48
2023-03-08T18:44:01.091Z,99398.59
2023-03-08T18:46:32.110Z,99404.69
2023-03-08T18:49:08.277Z,99402.84
2023-03-08T18:51:37.803Z,99400.58
2023-03-08T18:54:17.799Z,99405.39
2023-03-08T18:56:46.021Z,99408.16
2023-03-08T18:59:14.610Z,99403.52
2023-03-08T19:01:44.705Z,99404.42
2023-03-08T19:04:14.740Z,99409.44
2023-03-08T19:06:43.438Z,99405.89
2023-03-08T19:09:14.148Z,99410.06
2023-03-08T19:11:42.233Z,99410.39
2023-03-08T19:21:46.161Z,99415.41
2023-03-08T19:24:15.650Z,99418.55
2023-03-08T19:26:47.191Z,99418.27
2023-03-08T19:29:17.555Z,99419.14
2023-03-08T19:31:48.794Z,99423.57
2023-03-08T19:34:17.148Z,99422.44
2023-03-08T19:36:47.780Z,99428.85
2023-03-08T19:39:21.639Z,99432.65
2023-03-08T19:41:51.599Z,99434.23
2023-03-08T19:44:20.056Z,99436.20
2023-03-08T19:46:48.217Z,99440.67
2023-03-08T19:49:20.487Z,99438.68
2023-03-08T19:51:53.466Z,99432.17
2023-03-08T19:54:22.646Z,99424.75
2023-03-08T19:56:51.070Z,99432.94
2023-03-08T19:59:23.625Z,99433.64
2023-03-08T20:01:54.314Z,99430.48
2023-03-08T20:04:22.499Z,99421.49
2023-03-08T20:06:50.946Z,99418.30
2023-03-08T20:09:24.007Z,99417.64
2023-03-08T20:11:57.623Z,99421.49
2023-03-08T20:14:28.332Z,99420.66
2023-03-08T20:16:57.100Z,99429.75
2023-03-08T20:19:36.879Z,99434.98
2023-03-08T20:22:04.861Z,99429.58
2023-03-08T20:24:35.525Z,99436.55
2023-03-08T20:27:05.349Z,99441.15
2023-03-08T20:29:34.522Z,99436.57
2023-03-08T20:32:03.000Z,99432.89
2023-03-08T20:34:32.319Z,99438.08
2023-03-08T20:37:00.637Z,99446.57
2023-03-08T20:39:28.876Z,99457.52
2023-03-08T20:41:58.569Z,99471.82
2023-03-08T20:44:26.618Z,99473.73
2023-03-08T20:46:55.018Z,99460.15
2023-03-08T20:49:23.055Z,99459.70
2023-03-08T20:51:51.744Z,99474.02
2023-03-08T20:54:23.063Z,99487.52
2023-03-08T20:56:51.982Z,99514.08
2023-03-08T20:59:24.343Z,99512.94
2023-03-08T21:01:55.440Z,99512.75
2023-03-08T21:04:23.510Z,99513.98
2023-03-08T21:06:55.768Z,99517.73
2023-03-08T21:09:24.532Z,99529.13
2023-03-08T21:11:52.806Z,99531.98
2023-03-08T21:14:21.633Z,99527.35
2023-03-08T21:16:51.822Z,99528.70
2023-03-08T21:19:20.638Z,99525.52
2023-03-08T21:21:48.798Z,99521.27
2023-03-08T21:24:18.786Z,99527.57
2023-03-08T21:26:46.899Z,99531.95
2023-03-08T21:29:16.908Z,99529.11
2023-03-08T21:31:48.576Z,99525.05
2023-03-08T21:34:17.782Z,99532.70
2023-03-08T21:36:46.235Z,99532.23
2023-03-08T21:39:14.439Z,99530.70
2023-03-08T21:41:44.161Z,99533.93
2023-03-08T21:44:17.810Z,99538.40
2023-03-08T21:46:46.752Z,99537.77
2023-03-08T21:49:17.848Z,99540.14
2023-03-08T21:51:45.979Z,99537.66
2023-03-08T21:54:15.501Z,99532.02
2023-03-08T21:56:44.131Z,99539.16
2023-03-08T21:59:13.248Z,99541.61
2023-03-08T22:01:43.162Z,99542.48
2023-03-08T22:04:11.301Z,99546.39
2023-03-08T22:06:39.497Z,99546.47
2023-03-08T22:09:10.212Z,99539.30
2023-03-08T22:11:38.485Z,99538.50
2023-03-08T22:14:07.372Z,99539.56
2023-03-08T22:16:40.064Z,99539.56
2023-03-08T22:19:09.999Z,99534.75
2023-03-08T22:21:38.555Z,99530.73
2023-03-08T22:24:10.328Z,99525.57
2023-03-08T22:26:43.569Z,99521.79
2023-03-08T22:29:11.687Z,99527.02
2023-03-08T22:31:40.470Z,99525.48
2023-03-08T22:34:09.574Z,99521.59
2023-03-08T22:36:38.147Z,99521.48
2023-03-08T22:39:06.533Z,99526.88
2023-03-08T22:41:34.617Z,99522.06
2023-03-08T22:44:04.301Z,99528.83
2023-03-08T22:46:34.459Z,99526.63
2023-03-08T22:49:05.267Z,99533.73
2023-03-08T22:51:34.775Z,99545.13
2023-03-08T22:54:05.640Z,99544.81
2023-03-08T22:56:34.279Z,99547.36
2023-03-08T22:59:03.699Z,99551.38
2023-03-08T23:01:33.563Z,99557.15
2023-03-08T23:04:02.638Z,99567.72
2023-03-08T23:06:31.357Z,99566.42
2023-03-08T23:09:01.339Z,99562.45
2023-03-08T23:11:30.625Z,99555.40
2023-03-08T23:14:02.076Z,99546.27
2023-03-08T23:16:30.687Z,99545.68
2023-03-08T23:18:58.851Z,99540.44
2023-03-08T23:21:29.405Z,99537.38
2023-03-08T23:23:58.047Z,99527.23
2023-03-08T23:26:27.484Z,99528.67
2023-03-08T23:28:57.691Z,99525.41
2023-03-08T23:31:28.883Z,99517.58
2023-03-08T23:33:57.839Z,99512.00
2023-03-08T23:36:31.728Z,99503.07
2023-03-08T23:39:02.858Z,99495.17
2023-03-08T23:41:31.458Z,99489.96
2023-03-08T23:44:00.548Z,99496.94
2023-03-08T23:46:29.226Z,99503.70
2023-03-08T23:48:59.186Z,99508.70
2023-03-08T23:51:29.642Z,99511.30
2023-03-08T23:53:58.675Z,99510.23
2023-03-08T23:56:30.293Z,99516.25
2023-03-08T23:58:59.806Z,99512.94
